Time;durP1;ratioP1;P1;durP2;ratioP2;P2;SDS_P1;SDS_P2;PMS_P1;PMS_P2;Temp;Humidity;BMP_temperature;BMP_pressure;BME280_temperature;BME280_humidity;BME280_pressure;Samples;Min_cycle;Max_cycle;Signal;HPM_P1;HPM_P2
2023/10/16 00:00:47;;;;;;;8.60;5.07;;;;;;;;;;6109444;23;20545;-87
2023/10/16 00:03:55;;;;;;;9.03;4.97;;;;;;;;;;6092372;23;20261;-91
2023/10/16 00:07:00;;;;;;;13.53;5.60;;;;;;;;;;6092336;23;20174;-89
2023/10/16 00:10:11;;;;;;;10.57;5.23;;;;;;;;;;6091777;23;20158;-87
2023/10/16 00:13:23;;;;;;;10.17;5.20;;;;;;;;;;6091579;23;20192;-91
2023/10/16 00:16:30;;;;;;;8.37;5.37;;;;;;;;;;6092522;23;20254;-91
2023/10/16 00:19:38;;;;;;;8.57;4.83;;;;;;;;;;6092884;23;20261;-90
2023/10/16 00:22:43;;;;;;;7.37;4.50;;;;;;;;;;6090611;23;20166;-88
2023/10/16 00:25:50;;;;;;;7.40;4.37;;;;;;;;;;6090852;23;20169;-92
2023/10/16 00:29:07;;;;;;;8.67;4.53;;;;;;;;;;6091343;23;20173;-94
2023/10/16 00:32:13;;;;;;;9.37;5.10;;;;;;;;;;6090957;23;20195;-93
2023/10/16 00:35:22;;;;;;;7.07;4.33;;;;;;;;;;6091584;23;20170;-93
2023/10/16 00:38:30;;;;;;;6.87;4.20;;;;;;;;;;6108038;23;20170;-88
2023/10/16 00:41:36;;;;;;;8.17;4.90;;;;;;;;;;6090186;23;20173;-92
2023/10/16 00:44:42;;;;;;;7.63;4.43;;;;;;;;;;6092451;23;20169;-92
2023/10/16 00:47:47;;;;;;;8.07;4.83;;;;;;;;;;6090427;23;20191;-91
2023/10/16 00:50:54;;;;;;;9.83;5.60;;;;;;;;;;6091808;23;20174;-91
2023/10/16 00:54:00;;;;;;;7.37;4.77;;;;;;;;;;6089140;23;20252;-91
2023/10/16 00:57:07;;;;;;;9.07;5.00;;;;;;;;;;6090439;23;20210;-90
2023/10/16 01:00:13;;;;;;;9.73;4.70;;;;;;;;;;6089913;23;20178;-92
2023/10/16 01:03:20;;;;;;;9.20;5.00;;;;;;;;;;6089707;23;20170;-93
2023/10/16 01:06:36;;;;;;;7.93;4.30;;;;;;;;;;6090262;23;20166;-93
2023/10/16 01:09:42;;;;;;;8.33;4.80;;;;;;;;;;6091127;23;20174;-89
2023/10/16 01:12:55;;;;;;;8.47;4.80;;;;;;;;;;6106822;23;20601;-91
2023/10/16 01:16:00;;;;;;;9.00;4.73;;;;;;;;;;6092727;23;20210;-92
2023/10/16 01:19:06;;;;;;;8.93;4.93;;;;;;;;;;6090910;23;20178;-92
2023/10/16 01:22:13;;;;;;;9.47;5.00;;;;;;;;;;6092869;23;20198;-90
2023/10/16 01:25:21;;;;;;;10.23;5.80;;;;;;;;;;6093775;23;20177;-92
2023/10/16 01:28:27;;;;;;;8.13;4.97;;;;;;;;;;6108515;23;20173;-91
2023/10/16 01:31:33;;;;;;;9.17;5.57;;;;;;;;;;6092635;23;20194;-94
2023/10/16 01:34:41;;;;;;;14.90;5.87;;;;;;;;;;6091949;23;20256;-91
2023/10/16 01:37:46;;;;;;;10.67;5.47;;;;;;;;;;6090181;23;20210;-92
2023/10/16 01:41:04;;;;;;;9.83;5.60;;;;;;;;;;6107306;23;20178;-89
2023/10/16 01:44:11;;;;;;;12.93;6.27;;;;;;;;;;6091173;23;20173;-90
2023/10/16 01:47:16;;;;;;;12.60;5.60;;;;;;;;;;6090950;23;20272;-92
2023/10/16 01:50:23;;;;;;;9.03;5.60;;;;;;;;;;6107062;23;20173;-91
2023/10/16 01:53:32;;;;;;;18.10;5.40;;;;;;;;;;6092789;23;20334;-92
2023/10/16 01:56:41;;;;;;;9.60;5.10;;;;;;;;;;6093310;23;20177;-91
2023/10/16 01:59:47;;;;;;;9.67;4.80;;;;;;;;;;6090961;23;20178;-90
2023/10/16 02:02:52;;;;;;;6.73;4.20;;;;;;;;;;6091858;23;20617;-91
2023/10/16 02:05:57;;;;;;;8.13;4.27;;;;;;;;;;6108594;23;20272;-91
2023/10/16 02:09:04;;;;;;;10.13;5.13;;;;;;;;;;6109470;23;20170;-91
2023/10/16 02:12:14;;;;;;;11.63;5.60;;;;;;;;;;6092279;23;20169;-91
2023/10/16 02:15:21;;;;;;;16.27;5.37;;;;;;;;;;6090972;23;20197;-90
2023/10/16 02:18:27;;;;;;;9.10;5.40;;;;;;;;;;6092795;23;20423;-91
2023/10/16 02:21:32;;;;;;;11.03;5.63;;;;;;;;;;6090097;23;20174;-91
2023/10/16 02:24:40;;;;;;;10.97;5.27;;;;;;;;;;6108490;23;20194;-92
2023/10/16 02:27:50;;;;;;;13.33;5.60;;;;;;;;;;6108814;23;20169;-93
2023/10/16 02:30:55;;;;;;;12.30;5.70;;;;;;;;;;6091752;23;20186;-93
2023/10/16 02:34:12;;;;;;;10.20;5.97;;;;;;;;;;6107448;23;20383;-89
2023/10/16 02:37:17;;;;;;;11.30;5.60;;;;;;;;;;6095847;23;20290;-92
2023/10/16 02:40:25;;;;;;;9.50;5.60;;;;;;;;;;6090525;23;20177;-91
2023/10/16 02:43:31;;;;;;;11.07;5.60;;;;;;;;;;6091127;23;20303;-90
2023/10/16 02:46:36;;;;;;;10.53;5.90;;;;;;;;;;6089523;23;20177;-93
2023/10/16 02:49:47;;;;;;;10.10;6.13;;;;;;;;;;6108308;23;20170;-90
2023/10/16 02:52:52;;;;;;;10.60;6.57;;;;;;;;;;6092540;23;20199;-92
2023/10/16 02:56:03;;;;;;;12.97;6.37;;;;;;;;;;6094658;23;20630;-91
2023/10/16 02:59:09;;;;;;;9.70;6.00;;;;;;;;;;6093689;23;20204;-92
2023/10/16 03:02:17;;;;;;;11.00;6.10;;;;;;;;;;6106942;23;20616;-91
2023/10/16 03:05:28;;;;;;;11.60;6.40;;;;;;;;;;6091775;23;20218;-91
2023/10/16 03:08:36;;;;;;;10.07;6.23;;;;;;;;;;6090923;23;20217;-89
2023/10/16 03:11:41;;;;;;;11.67;6.63;;;;;;;;;;6090255;23;20169;-91
2023/10/16 03:14:51;;;;;;;9.40;5.63;;;;;;;;;;6105935;23;20194;-93
2023/10/16 03:17:57;;;;;;;9.47;5.63;;;;;;;;;;6088221;23;20174;-91
2023/10/16 03:21:26;;;;;;;9.13;5.13;;;;;;;;;;6106537;23;20177;-88
2023/10/16 03:24:34;;;;;;;9.93;5.50;;;;;;;;;;6090449;23;20657;-92
2023/10/16 03:27:42;;;;;;;10.30;5.93;;;;;;;;;;6091461;23;20177;-92
2023/10/16 03:30:49;;;;;;;10.97;6.00;;;;;;;;;;6089807;23;20181;-92
2023/10/16 03:33:55;;;;;;;11.17;5.87;;;;;;;;;;6091301;23;20162;-92
2023/10/16 03:37:05;;;;;;;9.87;5.30;;;;;;;;;;6090299;23;20241;-91
2023/10/16 03:40:13;;;;;;;8.77;5.70;;;;;;;;;;6091866;23;20222;-92
2023/10/16 03:43:20;;;;;;;12.03;5.83;;;;;;;;;;6094766;23;20158;-90
2023/10/16 03:46:26;;;;;;;7.83;4.80;;;;;;;;;;6105819;23;20166;-93
2023/10/16 03:49:32;;;;;;;9.93;5.67;;;;;;;;;;6107617;23;20170;-94
2023/10/16 03:52:37;;;;;;;14.17;5.67;;;;;;;;;;6090062;23;20190;-89
2023/10/16 03:55:44;;;;;;;9.63;5.60;;;;;;;;;;6091291;23;20197;-91
2023/10/16 03:58:53;;;;;;;10.20;5.80;;;;;;;;;;6091079;23;20190;-90
2023/10/16 04:02:03;;;;;;;10.43;6.00;;;;;;;;;;6090243;23;20173;-89
2023/10/16 04:05:29;;;;;;;8.03;5.37;;;;;;;;;;6091031;23;20158;-91
2023/10/16 04:08:35;;;;;;;9.00;5.10;;;;;;;;;;6090902;23;20198;-91
2023/10/16 04:11:43;;;;;;;7.57;5.10;;;;;;;;;;6108800;23;20694;-90
2023/10/16 04:14:55;;;;;;;11.67;6.23;;;;;;;;;;6092296;23;20243;-88
2023/10/16 04:18:05;;;;;;;43.50;11.07;;;;;;;;;;6091816;23;20357;-89
2023/10/16 04:24:47;;;;;;;13.93;6.17;;;;;;;;;;6089994;23;20197;-90
2023/10/16 04:28:09;;;;;;;9.17;5.40;;;;;;;;;;6092292;23;20647;-92
2023/10/16 04:31:44;;;;;;;13.33;6.43;;;;;;;;;;6092075;23;20170;-92
2023/10/16 04:34:54;;;;;;;11.70;6.37;;;;;;;;;;6093056;23;20242;-91
2023/10/16 04:38:27;;;;;;;13.33;6.93;;;;;;;;;;6092744;23;20170;-92
2023/10/16 04:48:47;;;;;;;15.07;7.03;;;;;;;;;;6097064;23;20226;-89
2023/10/16 04:51:52;;;;;;;10.93;6.40;;;;;;;;;;6100240;23;20172;-90
2023/10/16 04:55:02;;;;;;;13.40;7.90;;;;;;;;;;6096705;23;20201;-89
2023/10/16 05:02:10;;;;;;;13.60;6.77;;;;;;;;;;6000036;23;20175;-90
2023/10/16 05:08:59;;;;;;;13.37;7.07;;;;;;;;;;6092219;23;20243;-89
2023/10/16 05:19:03;;;;;;;12.97;7.20;;;;;;;;;;6113597;23;20269;-89
2023/10/16 06:14:09;;;;;;;14.50;8.53;;;;;;;;;;6096409;23;20174;-89
2023/10/16 06:16:28;;;;;;;16.90;9.50;;;;;;;;;;6112443;23;20194;-90
2023/10/16 06:19:33;;;;;;;12.70;7.67;;;;;;;;;;6092436;23;20162;-92
2023/10/16 06:22:38;;;;;;;20.70;8.07;;;;;;;;;;6091572;23;20249;-93
2023/10/16 06:25:47;;;;;;;16.27;8.50;;;;;;;;;;6092653;23;20166;-93
2023/10/16 06:28:53;;;;;;;13.53;7.93;;;;;;;;;;6093828;23;20166;-91
2023/10/16 06:32:07;;;;;;;17.23;8.00;;;;;;;;;;6097161;23;20175;-90
2023/10/16 06:35:16;;;;;;;13.23;7.07;;;;;;;;;;6096278;23;20197;-92
2023/10/16 06:38:22;;;;;;;17.33;8.17;;;;;;;;;;6112193;23;20214;-92
2023/10/16 06:41:28;;;;;;;15.27;7.53;;;;;;;;;;6095134;23;20538;-90
2023/10/16 06:44:34;;;;;;;15.77;7.83;;;;;;;;;;6094513;23;20169;-92
2023/10/16 06:47:47;;;;;;;17.67;8.07;;;;;;;;;;6096107;23;20170;-92
2023/10/16 06:51:03;;;;;;;12.13;7.20;;;;;;;;;;6100732;23;20161;-93
2023/10/16 06:54:23;;;;;;;15.13;8.00;;;;;;;;;;6097445;23;20242;-90
2023/10/16 06:57:32;;;;;;;14.80;7.73;;;;;;;;;;6114823;23;20166;-94
2023/10/16 07:00:38;;;;;;;19.10;9.30;;;;;;;;;;6100952;23;20202;-89
2023/10/16 07:03:52;;;;;;;15.10;7.20;;;;;;;;;;6100924;23;20174;-92
2023/10/16 07:06:59;;;;;;;15.13;7.60;;;;;;;;;;6111182;23;20169;-90
2023/10/16 07:10:13;;;;;;;17.60;7.83;;;;;;;;;;6092830;23;20161;-91
2023/10/16 07:13:26;;;;;;;14.83;7.30;;;;;;;;;;6099382;23;20165;-90
2023/10/16 07:16:33;;;;;;;14.93;7.37;;;;;;;;;;6100901;23;20661;-89
2023/10/16 07:19:42;;;;;;;11.10;5.83;;;;;;;;;;6099924;23;20182;-91
2023/10/16 07:22:47;;;;;;;29.13;11.33;;;;;;;;;;6097060;23;20178;-90
2023/10/16 07:25:56;;;;;;;11.07;5.70;;;;;;;;;;6098527;23;20186;-91
2023/10/16 07:29:02;;;;;;;12.30;5.60;;;;;;;;;;6099983;23;20178;-89
2023/10/16 07:32:08;;;;;;;15.10;6.27;;;;;;;;;;6100758;23;20162;-90
2023/10/16 07:35:17;;;;;;;11.90;6.80;;;;;;;;;;6100335;23;20197;-89
2023/10/16 07:38:26;;;;;;;11.67;6.47;;;;;;;;;;6100054;23;20172;-91
2023/10/16 07:41:33;;;;;;;11.53;6.50;;;;;;;;;;6095073;23;20170;-92
2023/10/16 07:44:41;;;;;;;20.30;6.97;;;;;;;;;;6094837;23;20186;-91
2023/10/16 07:47:48;;;;;;;12.90;6.83;;;;;;;;;;6096182;23;20199;-91
2023/10/16 07:50:55;;;;;;;11.67;6.73;;;;;;;;;;6094666;23;20845;-91
2023/10/16 07:54:10;;;;;;;13.17;6.87;;;;;;;;;;6109817;23;20169;-92
2023/10/16 07:57:17;;;;;;;9.87;6.00;;;;;;;;;;6093640;23;20287;-91
2023/10/16 08:00:26;;;;;;;10.37;5.93;;;;;;;;;;6093486;23;20181;-91
2023/10/16 08:03:36;;;;;;;10.53;5.30;;;;;;;;;;6096323;23;20243;-92
2023/10/16 08:06:45;;;;;;;11.73;6.40;;;;;;;;;;6095311;23;20254;-91
2023/10/16 08:09:57;;;;;;;12.50;6.67;;;;;;;;;;6093092;23;20210;-88
2023/10/16 08:13:11;;;;;;;9.97;5.93;;;;;;;;;;6093801;23;20178;-93
2023/10/16 08:16:18;;;;;;;11.27;6.73;;;;;;;;;;6092597;23;20202;-88
2023/10/16 08:19:24;;;;;;;14.53;7.00;;;;;;;;;;6092540;23;20241;-92
2023/10/16 08:22:30;;;;;;;16.00;6.87;;;;;;;;;;6094298;23;20240;-90
2023/10/16 08:25:35;;;;;;;13.07;6.90;;;;;;;;;;6092425;23;20294;-90
2023/10/16 08:28:45;;;;;;;11.87;5.43;;;;;;;;;;6111148;23;20511;-93
2023/10/16 08:32:43;;;;;;;16.07;7.03;;;;;;;;;;6093844;23;20195;-92
2023/10/16 08:35:19;;;;;;;12.57;7.40;;;;;;;;;;6096063;23;20257;-93
2023/10/16 08:38:26;;;;;;;13.00;6.63;;;;;;;;;;6092953;23;20248;-91
2023/10/16 08:41:42;;;;;;;13.87;5.80;;;;;;;;;;6110716;23;20162;-89
2023/10/16 08:44:51;;;;;;;12.23;6.32;;;;;;;;;;6094827;23;20195;-91
2023/10/16 08:47:57;;;;;;;8.32;4.80;;;;;;;;;;6095083;23;20187;-90
2023/10/16 08:51:02;;;;;;;13.90;6.20;;;;;;;;;;6093273;23;20287;-91
2023/10/16 08:57:29;;;;;;;12.80;5.70;;;;;;;;;;6092276;23;20195;-91
2023/10/16 09:00:38;;;;;;;9.13;5.30;;;;;;;;;;6093816;23;20186;-91
2023/10/16 09:03:46;;;;;;;13.87;6.90;;;;;;;;;;6093464;23;20299;-91
2023/10/16 09:06:51;;;;;;;11.13;6.30;;;;;;;;;;6096742;23;20183;-90
2023/10/16 09:09:58;;;;;;;10.97;6.13;;;;;;;;;;6111630;23;20724;-91
2023/10/16 09:13:15;;;;;;;10.33;5.33;;;;;;;;;;6110753;23;20169;-91
2023/10/16 09:16:23;;;;;;;11.45;5.80;;;;;;;;;;6093954;23;20251;-92
2023/10/16 09:19:33;;;;;;;9.27;5.57;;;;;;;;;;6093502;23;20173;-92
2023/10/16 09:22:40;;;;;;;10.27;5.97;;;;;;;;;;6094151;23;20166;-92
2023/10/16 09:25:56;;;;;;;9.82;5.28;;;;;;;;;;6093614;23;20261;-90
2023/10/16 09:29:13;;;;;;;10.02;5.85;;;;;;;;;;6092301;23;20186;-90
2023/10/16 09:32:20;;;;;;;9.50;5.30;;;;;;;;;;6092004;23;20175;-90
2023/10/16 09:35:32;;;;;;;12.63;5.63;;;;;;;;;;6093678;23;20267;-90
2023/10/16 09:38:42;;;;;;;9.85;5.43;;;;;;;;;;6093653;23;20182;-93
2023/10/16 09:41:49;;;;;;;11.43;5.55;;;;;;;;;;6093250;23;20174;-92
2023/10/16 09:44:59;;;;;;;9.70;5.53;;;;;;;;;;6093372;23;20182;-91
2023/10/16 09:48:08;;;;;;;10.38;5.82;;;;;;;;;;6095916;23;20199;-89
2023/10/16 09:51:15;;;;;;;11.02;5.75;;;;;;;;;;6095308;23;20211;-89
2023/10/16 09:54:21;;;;;;;8.85;5.25;;;;;;;;;;6095953;23;20212;-90
2023/10/16 09:57:30;;;;;;;9.05;5.50;;;;;;;;;;6095662;23;20198;-92
2023/10/16 10:00:39;;;;;;;8.98;5.38;;;;;;;;;;6098082;23;20173;-91
2023/10/16 10:03:45;;;;;;;10.23;6.38;;;;;;;;;;6097163;23;20174;-91
2023/10/16 10:06:54;;;;;;;18.42;10.38;;;;;;;;;;6095973;23;20504;-90
2023/10/16 10:10:00;;;;;;;10.15;5.90;;;;;;;;;;6095257;23;20158;-93
2023/10/16 10:13:23;;;;;;;9.27;5.15;;;;;;;;;;6094617;23;20178;-90
2023/10/16 10:16:35;;;;;;;8.50;5.30;;;;;;;;;;6095814;23;20189;-91
2023/10/16 10:19:41;;;;;;;10.35;5.25;;;;;;;;;;6100890;23;20173;-92
2023/10/16 10:22:53;;;;;;;9.45;4.95;;;;;;;;;;6098793;23;20241;-93
2023/10/16 10:26:02;;;;;;;6.53;4.03;;;;;;;;;;6096707;23;20236;-91
2023/10/16 10:29:11;;;;;;;9.70;5.38;;;;;;;;;;6095716;23;20181;-92
2023/10/16 10:32:17;;;;;;;10.15;5.05;;;;;;;;;;6097124;23;20170;-92
2023/10/16 10:35:26;;;;;;;13.43;4.85;;;;;;;;;;6097058;23;20161;-92
2023/10/16 10:38:33;;;;;;;10.40;5.32;;;;;;;;;;6095631;23;20165;-91
2023/10/16 10:41:50;;;;;;;7.97;4.97;;;;;;;;;;6094033;23;20181;-92
2023/10/16 11:37:50;;;;;;;6.75;3.88;;;;;;;;;;6057052;23;20222;-92
2023/10/16 11:40:55;;;;;;;9.82;4.88;;;;;;;;;;6080499;23;20174;-90
2023/10/16 11:44:05;;;;;;;9.70;4.63;;;;;;;;;;6113890;23;20231;-93
2023/10/16 11:47:18;;;;;;;7.40;4.18;;;;;;;;;;6095606;23;20174;-92
2023/10/16 11:50:38;;;;;;;6.43;4.05;;;;;;;;;;6094447;23;20206;-92
2023/10/16 11:53:45;;;;;;;7.93;4.47;;;;;;;;;;6095750;23;20622;-90
2023/10/16 11:56:53;;;;;;;6.80;4.00;;;;;;;;;;6096416;23;20189;-94
2023/10/16 12:00:00;;;;;;;8.45;4.22;;;;;;;;;;6098218;23;20177;-93
2023/10/16 12:03:07;;;;;;;8.05;4.55;;;;;;;;;;6099102;23;20170;-93
2023/10/16 12:06:13;;;;;;;11.15;4.90;;;;;;;;;;6098406;23;20178;-91
2023/10/16 12:09:20;;;;;;;7.03;3.60;;;;;;;;;;6115289;23;20173;-92
2023/10/16 12:12:28;;;;;;;5.65;3.90;;;;;;;;;;6097188;23;20215;-92
2023/10/16 12:15:34;;;;;;;10.02;4.20;;;;;;;;;;6094872;23;20228;-92
2023/10/16 12:22:02;;;;;;;8.57;4.25;;;;;;;;;;6099854;23;20170;-93
2023/10/16 12:25:24;;;;;;;10.38;5.32;;;;;;;;;;6096462;23;20214;-93
2023/10/16 12:28:31;;;;;;;7.82;3.80;;;;;;;;;;6096616;23;20271;-90
2023/10/16 12:31:37;;;;;;;7.32;4.07;;;;;;;;;;6095044;23;20226;-91
2023/10/16 12:34:42;;;;;;;6.32;4.22;;;;;;;;;;6099194;23;20206;-93
2023/10/16 12:37:49;;;;;;;8.88;4.80;;;;;;;;;;6097150;23;20677;-93
2023/10/16 12:41:05;;;;;;;7.07;4.43;;;;;;;;;;6099465;23;20558;-90
2023/10/16 12:44:11;;;;;;;8.20;4.95;;;;;;;;;;6099446;23;20177;-91
2023/10/16 12:47:17;;;;;;;9.10;4.57;;;;;;;;;;6095828;23;20166;-93
2023/10/16 12:50:24;;;;;;;8.20;4.68;;;;;;;;;;6094963;23;20223;-93
2023/10/16 12:53:30;;;;;;;8.82;4.95;;;;;;;;;;6113182;23;20169;-90
2023/10/16 12:56:41;;;;;;;8.38;4.80;;;;;;;;;;6096493;23;20246;-92
2023/10/16 12:59:46;;;;;;;8.95;4.32;;;;;;;;;;6095469;23;20169;-91
2023/10/16 13:02:54;;;;;;;9.45;4.57;;;;;;;;;;6112782;23;20182;-94
2023/10/16 13:09:18;;;;;;;10.40;3.85;;;;;;;;;;6096084;23;20193;-94
2023/10/16 13:12:26;;;;;;;9.35;3.95;;;;;;;;;;6114175;23;20173;-91
2023/10/16 13:15:38;;;;;;;8.13;3.88;;;;;;;;;;6098945;23;20217;-90
2023/10/16 13:23:05;;;;;;;8.77;3.78;;;;;;;;;;6101226;23;20169;-94
2023/10/16 13:26:11;;;;;;;6.82;3.95;;;;;;;;;;6099626;23;20206;-92
2023/10/16 13:29:19;;;;;;;6.78;3.58;;;;;;;;;;6114345;23;20166;-92
2023/10/16 13:32:24;;;;;;;6.78;3.63;;;;;;;;;;6095857;23;20162;-92
2023/10/16 13:35:29;;;;;;;8.77;3.85;;;;;;;;;;6097499;23;20215;-94
2023/10/16 13:38:35;;;;;;;7.50;4.18;;;;;;;;;;6096822;23;20230;-94
2023/10/16 13:41:50;;;;;;;7.88;3.53;;;;;;;;;;6114748;23;20149;-93
2023/10/16 13:45:00;;;;;;;9.80;3.13;;;;;;;;;;6099940;23;20187;-94
2023/10/16 13:48:09;;;;;;;8.05;3.40;;;;;;;;;;6099382;23;20162;-91
2023/10/16 13:51:17;;;;;;;6.55;3.28;;;;;;;;;;6099290;23;20509;-91
2023/10/16 13:54:40;;;;;;;6.72;3.13;;;;;;;;;;6099805;23;20157;-92
2023/10/16 13:57:51;;;;;;;6.72;3.20;;;;;;;;;;6100760;23;20205;-93
2023/10/16 14:00:59;;;;;;;7.90;3.35;;;;;;;;;;6098150;23;20171;-93
2023/10/16 14:04:04;;;;;;;8.23;3.90;;;;;;;;;;6100575;23;20166;-93
2023/10/16 14:07:19;;;;;;;10.98;3.45;;;;;;;;;;6098908;23;20212;-94
2023/10/16 14:10:26;;;;;;;6.35;3.35;;;;;;;;;;6100907;23;20222;-93
2023/10/16 14:13:40;;;;;;;8.15;3.42;;;;;;;;;;6099395;23;20173;-93
2023/10/16 14:16:49;;;;;;;12.95;4.70;;;;;;;;;;6096389;23;20197;-91
2023/10/16 14:19:58;;;;;;;7.40;3.88;;;;;;;;;;6099237;23;20175;-93
2023/10/16 14:23:10;;;;;;;6.88;3.55;;;;;;;;;;6098158;23;20169;-91
2023/10/16 14:26:22;;;;;;;7.07;3.20;;;;;;;;;;6099740;23;20170;-92
2023/10/16 14:29:28;;;;;;;8.70;2.80;;;;;;;;;;6115549;23;20549;-91
2023/10/16 14:32:35;;;;;;;5.10;3.13;;;;;;;;;;6098387;23;20233;-93
2023/10/16 14:35:40;;;;;;;4.38;2.30;;;;;;;;;;6100362;23;20145;-92
2023/10/16 14:38:46;;;;;;;5.63;2.45;;;;;;;;;;6099895;23;20194;-92
2023/10/16 14:41:52;;;;;;;4.88;2.60;;;;;;;;;;6114711;23;20211;-95
2023/10/16 14:44:57;;;;;;;5.15;2.10;;;;;;;;;;6096554;23;20209;-93
2023/10/16 14:48:05;;;;;;;6.07;2.10;;;;;;;;;;6096569;23;20174;-92
2023/10/16 14:51:15;;;;;;;14.55;3.33;;;;;;;;;;6098391;23;20174;-90
2023/10/16 14:54:23;;;;;;;9.85;2.47;;;;;;;;;;6099929;23;20162;-93
2023/10/16 14:57:31;;;;;;;7.53;2.30;;;;;;;;;;6097397;23;20568;-93
2023/10/16 15:00:41;;;;;;;3.65;1.80;;;;;;;;;;6096996;23;20178;-94
2023/10/16 15:03:51;;;;;;;12.10;3.15;;;;;;;;;;6098143;23;20162;-94
2023/10/16 15:07:04;;;;;;;13.82;2.00;;;;;;;;;;6097940;23;20280;-93
2023/10/16 15:10:14;;;;;;;7.00;1.40;;;;;;;;;;6094504;23;20162;-94
2023/10/16 15:16:42;;;;;;;2.95;1.42;;;;;;;;;;6098590;23;20253;-92
2023/10/16 15:20:31;;;;;;;4.75;1.20;;;;;;;;;;6096614;23;20181;-91
2023/10/16 15:23:36;;;;;;;2.80;1.25;;;;;;;;;;6111258;23;20174;-94
2023/10/16 15:26:42;;;;;;;4.05;1.50;;;;;;;;;;6111739;23;20170;-92
2023/10/16 15:29:47;;;;;;;4.22;1.50;;;;;;;;;;6096942;23;20158;-92
2023/10/16 15:32:52;;;;;;;6.18;1.50;;;;;;;;;;6113082;23;20181;-90
2023/10/16 15:36:00;;;;;;;4.28;1.70;;;;;;;;;;6112963;23;20179;-93
2023/10/16 15:39:15;;;;;;;6.35;2.75;;;;;;;;;;6096134;23;20221;-93
2023/10/16 15:42:20;;;;;;;5.82;2.58;;;;;;;;;;6095307;23;20177;-93
2023/10/16 15:45:26;;;;;;;3.80;2.05;;;;;;;;;;6095714;23;20337;-91
2023/10/16 15:48:33;;;;;;;4.13;2.15;;;;;;;;;;6094744;23;20165;-92
2023/10/16 15:51:41;;;;;;;9.77;2.30;;;;;;;;;;6094997;23;20173;-93
2023/10/16 15:54:46;;;;;;;5.38;2.20;;;;;;;;;;6093741;23;20174;-93
2023/10/16 15:57:52;;;;;;;5.65;2.30;;;;;;;;;;6112216;23;20277;-93
2023/10/16 16:00:58;;;;;;;10.65;3.00;;;;;;;;;;6094961;23;20508;-93
2023/10/16 16:04:08;;;;;;;4.78;1.92;;;;;;;;;;6111254;23;20169;-91
2023/10/16 16:07:15;;;;;;;7.13;2.08;;;;;;;;;;6112786;23;20215;-92
2023/10/16 16:10:20;;;;;;;4.50;2.17;;;;;;;;;;6111200;23;20625;-93
2023/10/16 16:13:32;;;;;;;7.70;2.35;;;;;;;;;;6094731;23;20241;-92
2023/10/16 16:16:46;;;;;;;6.55;2.80;;;;;;;;;;6094912;23;20618;-89
2023/10/16 16:19:52;;;;;;;5.55;2.55;;;;;;;;;;6094894;23;20232;-90
2023/10/16 16:23:05;;;;;;;9.10;2.70;;;;;;;;;;6096372;23;20169;-90
2023/10/16 16:26:11;;;;;;;7.53;2.72;;;;;;;;;;6097518;23;20237;-93
2023/10/16 16:29:17;;;;;;;5.22;3.13;;;;;;;;;;6097341;23;20170;-92
2023/10/16 16:32:25;;;;;;;7.03;3.35;;;;;;;;;;6096555;23;20218;-93
2023/10/16 16:38:55;;;;;;;11.15;3.47;;;;;;;;;;6112370;23;20282;-92
2023/10/16 16:42:05;;;;;;;6.85;3.47;;;;;;;;;;6093369;23;20176;-91
2023/10/16 16:45:13;;;;;;;5.25;3.00;;;;;;;;;;6112996;23;20177;-91
2023/10/16 16:48:18;;;;;;;12.00;3.22;;;;;;;;;;6113349;23;20165;-92
2023/10/16 16:51:23;;;;;;;9.43;3.47;;;;;;;;;;6112778;23;20178;-92
2023/10/16 16:54:30;;;;;;;7.93;3.58;;;;;;;;;;6115012;23;20226;-93
2023/10/16 16:57:35;;;;;;;10.73;3.70;;;;;;;;;;6096949;23;20273;-94
2023/10/16 17:00:40;;;;;;;9.03;3.70;;;;;;;;;;6095956;23;20594;-93
2023/10/16 17:03:46;;;;;;;8.25;3.90;;;;;;;;;;6114345;23;20169;-92
2023/10/16 17:06:52;;;;;;;10.30;3.83;;;;;;;;;;6113710;23;20166;-92
2023/10/16 17:09:59;;;;;;;8.97;4.53;;;;;;;;;;6096060;23;20217;-92
2023/10/16 17:13:06;;;;;;;16.23;7.60;;;;;;;;;;6096536;23;20173;-94
2023/10/16 17:16:11;;;;;;;10.60;4.13;;;;;;;;;;6095124;23;20182;-93
2023/10/16 17:19:16;;;;;;;6.43;3.20;;;;;;;;;;6097239;23;20633;-94
2023/10/16 17:22:23;;;;;;;7.87;3.80;;;;;;;;;;6111204;23;20210;-93
2023/10/16 17:25:30;;;;;;;11.10;5.33;;;;;;;;;;6096976;23;20166;-92
2023/10/16 17:28:35;;;;;;;9.30;4.07;;;;;;;;;;6097436;23;20177;-94
2023/10/16 17:31:41;;;;;;;6.50;3.57;;;;;;;;;;6098609;23;20169;-91
2023/10/16 17:34:48;;;;;;;10.87;4.00;;;;;;;;;;6112566;23;20182;-92
2023/10/16 17:37:54;;;;;;;9.53;4.27;;;;;;;;;;6098399;23;20305;-93
2023/10/16 17:41:01;;;;;;;8.47;4.33;;;;;;;;;;6098913;23;20173;-95
2023/10/16 17:44:07;;;;;;;10.43;4.47;;;;;;;;;;6099985;23;20155;-93
2023/10/16 17:47:14;;;;;;;13.20;4.83;;;;;;;;;;6097382;23;20218;-92
2023/10/16 17:50:28;;;;;;;12.33;5.07;;;;;;;;;;6098031;23;20173;-92
2023/10/16 17:53:34;;;;;;;7.07;4.10;;;;;;;;;;6098035;23;20685;-91
2023/10/16 17:56:42;;;;;;;11.60;5.00;;;;;;;;;;6097698;23;20260;-92
2023/10/16 17:59:52;;;;;;;8.57;4.20;;;;;;;;;;6097192;23;20198;-93
2023/10/16 18:02:59;;;;;;;8.43;4.37;;;;;;;;;;6099683;23;20166;-90
2023/10/16 18:06:07;;;;;;;10.30;4.93;;;;;;;;;;6099091;23;20170;-90
2023/10/16 18:12:34;;;;;;;10.47;4.40;;;;;;;;;;6102768;23;20251;-90
2023/10/16 18:15:40;;;;;;;8.87;4.30;;;;;;;;;;6118860;23;20178;-91
2023/10/16 18:18:47;;;;;;;10.50;4.47;;;;;;;;;;6100441;23;20214;-90
2023/10/16 18:21:52;;;;;;;7.30;4.20;;;;;;;;;;6092013;23;20290;-91
2023/10/16 18:24:57;;;;;;;9.70;4.03;;;;;;;;;;6109800;23;20170;-90
2023/10/16 18:28:03;;;;;;;13.83;5.43;;;;;;;;;;6092402;23;20174;-91
2023/10/16 18:31:11;;;;;;;10.53;5.50;;;;;;;;;;6093017;23;20170;-91
2023/10/16 18:34:18;;;;;;;13.40;5.77;;;;;;;;;;6095009;23;20317;-93
2023/10/16 18:37:23;;;;;;;10.00;5.10;;;;;;;;;;6095429;23;20161;-91
2023/10/16 18:40:29;;;;;;;14.93;6.10;;;;;;;;;;6094725;23;20162;-89
2023/10/16 18:43:36;;;;;;;13.03;5.07;;;;;;;;;;6094615;23;20621;-92
2023/10/16 18:46:41;;;;;;;9.43;4.53;;;;;;;;;;6110074;23;20275;-91
2023/10/16 18:49:47;;;;;;;14.50;5.30;;;;;;;;;;6095459;23;20170;-92
2023/10/16 18:52:53;;;;;;;12.83;4.87;;;;;;;;;;6097605;23;20169;-93
2023/10/16 18:55:59;;;;;;;7.97;4.20;;;;;;;;;;6093510;23;20570;-92
2023/10/16 18:59:06;;;;;;;8.80;3.67;;;;;;;;;;6094145;23;20297;-92
2023/10/16 19:02:12;;;;;;;7.90;4.20;;;;;;;;;;6093681;23;20186;-92
2023/10/16 19:05:18;;;;;;;7.77;3.60;;;;;;;;;;6092247;23;20169;-93
2023/10/16 19:08:24;;;;;;;8.30;3.93;;;;;;;;;;6093343;23;20173;-91
2023/10/16 19:11:32;;;;;;;8.80;4.57;;;;;;;;;;6098728;23;20174;-92
2023/10/16 19:17:58;;;;;;;9.33;4.87;;;;;;;;;;6093366;23;20238;-93
2023/10/16 19:21:04;;;;;;;7.73;4.40;;;;;;;;;;6091186;23;20189;-93
2023/10/16 19:24:11;;;;;;;9.83;4.60;;;;;;;;;;6110231;23;20225;-92
2023/10/16 19:27:17;;;;;;;10.73;4.60;;;;;;;;;;6093398;23;20157;-92
2023/10/16 19:30:26;;;;;;;11.00;4.67;;;;;;;;;;6102266;23;20182;-91
2023/10/16 22:00:29;;;;;;;8.33;4.53;;;;;;;;;;6057149;23;20198;-89
2023/10/16 22:03:38;;;;;;;9.63;4.50;;;;;;;;;;6063852;23;20310;-90
2023/10/16 22:06:46;;;;;;;12.13;4.70;;;;;;;;;;6037835;23;20222;-90
2023/10/16 22:09:58;;;;;;;8.77;4.70;;;;;;;;;;6057879;23;20174;-90
2023/10/16 22:13:03;;;;;;;9.30;4.90;;;;;;;;;;6062392;23;20671;-90
2023/10/16 22:16:11;;;;;;;9.10;4.50;;;;;;;;;;6064133;23;20159;-90
2023/10/16 22:19:18;;;;;;;11.53;4.60;;;;;;;;;;6066219;23;20190;-91
2023/10/16 22:22:22;;;;;;;8.33;4.43;;;;;;;;;;6064177;23;20202;-91
2023/10/16 22:25:29;;;;;;;7.03;4.20;;;;;;;;;;6063250;23;20223;-90
2023/10/16 22:28:34;;;;;;;8.90;3.90;;;;;;;;;;6063659;23;20174;-92
2023/10/16 22:31:40;;;;;;;8.50;4.73;;;;;;;;;;6063194;23;20258;-91
2023/10/16 22:34:47;;;;;;;8.63;5.00;;;;;;;;;;6064430;23;20246;-91
2023/10/16 22:37:53;;;;;;;8.33;4.97;;;;;;;;;;6062881;23;20196;-91
2023/10/16 22:40:58;;;;;;;10.37;5.57;;;;;;;;;;6062888;23;20179;-92
2023/10/16 22:44:03;;;;;;;10.13;5.03;;;;;;;;;;6064364;23;20246;-92
2023/10/16 22:47:09;;;;;;;11.30;5.23;;;;;;;;;;6062736;23;20180;-91
2023/10/16 22:50:17;;;;;;;13.57;5.50;;;;;;;;;;6063515;23;20178;-90
2023/10/16 22:53:22;;;;;;;11.13;5.20;;;;;;;;;;6066711;23;20618;-92
2023/10/16 22:56:27;;;;;;;9.93;5.03;;;;;;;;;;6063000;23;20179;-91
2023/10/16 22:59:32;;;;;;;8.37;5.10;;;;;;;;;;6062977;23;20194;-92
2023/10/16 23:02:37;;;;;;;8.73;4.63;;;;;;;;;;6063376;23;20205;-92
2023/10/16 23:05:44;;;;;;;9.37;4.90;;;;;;;;;;6066509;23;20199;-92
2023/10/16 23:08:52;;;;;;;7.10;4.53;;;;;;;;;;6066640;23;20185;-89
2023/10/16 23:12:07;;;;;;;6.27;3.83;;;;;;;;;;6066938;23;20209;-93
2023/10/16 23:15:18;;;;;;;7.20;4.47;;;;;;;;;;6069064;23;20158;-91
2023/10/16 23:18:23;;;;;;;9.60;4.80;;;;;;;;;;6059680;23;20194;-91
2023/10/16 23:21:29;;;;;;;10.93;4.97;;;;;;;;;;6062766;23;20250;-91
2023/10/16 23:24:35;;;;;;;11.37;5.20;;;;;;;;;;6063228;23;20174;-91
2023/10/16 23:27:42;;;;;;;8.10;4.57;;;;;;;;;;6062073;23;20179;-91
2023/10/16 23:30:47;;;;;;;8.20;4.70;;;;;;;;;;6061899;23;20170;-91
2023/10/16 23:33:58;;;;;;;8.73;4.80;;;;;;;;;;6062529;23;20192;-90
2023/10/16 23:37:14;;;;;;;7.33;4.67;;;;;;;;;;6062071;23;20725;-89
2023/10/16 23:43:51;;;;;;;8.70;4.57;;;;;;;;;;6063988;23;20638;-94
2023/10/16 23:46:56;;;;;;;8.27;4.63;;;;;;;;;;6062420;23;20175;-92
2023/10/16 23:50:06;;;;;;;8.77;4.87;;;;;;;;;;6063625;23;20155;-92